createdAt,value
2022-09-20T00:00:37.302Z,13.55
2022-09-20T00:01:40.207Z,13.56
2022-09-20T00:02:44.118Z,13.59
2022-09-20T00:03:48.418Z,13.51
2022-09-20T00:04:51.986Z,13.52
2022-09-20T00:05:55.250Z,13.60
2022-09-20T00:06:59.592Z,13.64
2022-09-20T00:08:05.204Z,13.68
2022-09-20T00:09:08.599Z,13.66
2022-09-20T00:10:11.466Z,13.64
2022-09-20T00:11:22.398Z,13.69
2022-09-20T00:12:27.465Z,13.69
2022-09-20T00:13:30.761Z,13.52
2022-09-20T00:14:34.198Z,13.51
2022-09-20T00:15:41.949Z,13.49
2022-09-20T00:16:45.099Z,13.51
2022-09-20T00:17:47.809Z,13.45
2022-09-20T00:18:52.463Z,13.56
2022-09-20T00:19:55.969Z,13.63
2022-09-20T00:20:59.370Z,13.63
2022-09-20T00:22:01.739Z,13.65
2022-09-20T00:23:08.045Z,13.59
2022-09-20T00:24:11.628Z,13.57
2022-09-20T00:25:17.255Z,13.53
2022-09-20T00:26:20.434Z,13.50
2022-09-20T00:27:24.159Z,13.36
2022-09-20T00:28:28.390Z,13.30
2022-09-20T00:29:31.679Z,13.27
2022-09-20T00:30:37.973Z,13.25
2022-09-20T00:31:42.270Z,13.24
2022-09-20T00:32:45.641Z,13.29
2022-09-20T00:34:07.649Z,13.29
2022-09-20T00:35:17.020Z,13.20
2022-09-20T00:36:20.607Z,13.17
2022-09-20T00:37:24.035Z,13.20
2022-09-20T00:38:27.828Z,13.20
2022-09-20T00:39:32.731Z,13.21
2022-09-20T00:40:35.260Z,13.20
2022-09-20T00:41:40.743Z,13.14
2022-09-20T00:42:46.957Z,12.99
2022-09-20T00:43:50.364Z,12.88
2022-09-20T00:45:00.543Z,12.92
2022-09-20T00:46:05.502Z,12.92
2022-09-20T00:47:10.061Z,12.96
2022-09-20T00:48:18.065Z,12.92
2022-09-20T00:49:23.175Z,12.89
2022-09-20T00:50:48.278Z,12.84
2022-09-20T00:51:57.513Z,12.80
2022-09-20T00:53:02.888Z,12.64
2022-09-20T00:54:08.181Z,12.59
2022-09-20T00:55:12.134Z,12.55
2022-09-20T00:56:20.199Z,12.56
2022-09-20T00:57:25.798Z,12.61
2022-09-20T00:58:29.605Z,12.66
2022-09-20T00:59:35.731Z,12.61
2022-09-20T01:00:40.113Z,12.57
2022-09-20T01:01:44.115Z,12.57
2022-09-20T01:02:50.567Z,12.59
2022-09-20T01:03:55.142Z,12.54
2022-09-20T01:04:59.001Z,12.54
2022-09-20T01:06:02.913Z,12.52
2022-09-20T01:07:08.823Z,12.48
2022-09-20T01:08:12.545Z,12.54
2022-09-20T01:09:16.667Z,12.54
2022-09-20T01:10:20.391Z,12.60
2022-09-20T01:11:23.698Z,12.64
2022-09-20T01:12:31.058Z,12.71
2022-09-20T01:13:34.706Z,12.72
2022-09-20T01:14:36.908Z,12.75
2022-09-20T01:15:40.421Z,12.68
2022-09-20T01:16:43.985Z,12.79
2022-09-20T01:17:51.390Z,12.85
2022-09-20T01:18:57.517Z,12.84
2022-09-20T01:20:15.070Z,12.85
2022-09-20T01:21:22.179Z,12.89
2022-09-20T01:22:31.417Z,12.87
2022-09-20T01:23:46.768Z,12.80
2022-09-20T01:25:05.804Z,12.79
2022-09-20T01:26:12.640Z,12.65
2022-09-20T01:27:35.574Z,12.66
2022-09-20T01:28:42.536Z,12.64
2022-09-20T01:29:47.712Z,12.64
2022-09-20T01:31:10.950Z,12.64
2022-09-20T01:32:15.824Z,12.71
2022-09-20T01:33:21.971Z,12.69
2022-09-20T01:34:28.260Z,12.58
2022-09-20T01:35:33.427Z,12.60
2022-09-20T01:36:44.986Z,12.55
2022-09-20T01:37:50.254Z,12.57
2022-09-20T01:38:56.685Z,12.58
2022-09-20T01:40:01.765Z,12.61
2022-09-20T01:41:18.380Z,12.56
2022-09-20T01:42:25.174Z,12.48
2022-09-20T01:43:32.014Z,12.48
2022-09-20T01:44:47.435Z,12.50
2022-09-20T01:45:51.224Z,12.51
2022-09-20T01:46:56.535Z,12.45
2022-09-20T01:48:00.654Z,12.44
2022-09-20T01:49:11.586Z,12.43
2022-09-20T01:50:33.580Z,12.50
2022-09-20T01:51:50.140Z,12.51
2022-09-20T01:53:07.316Z,12.54
2022-09-20T01:54:15.104Z,12.60
2022-09-20T01:55:23.205Z,12.61
2022-09-20T01:56:46.946Z,12.59
2022-09-20T01:58:00.512Z,12.56
2022-09-20T01:59:27.169Z,12.59
2022-09-20T02:00:19.734Z,12.47
2022-09-20T02:01:27.907Z,12.48
2022-09-20T02:02:52.017Z,12.55
2022-09-20T02:04:07.168Z,12.59
2022-09-20T02:05:28.903Z,12.56
2022-09-20T02:06:50.145Z,12.44
2022-09-20T02:08:04.200Z,12.33
2022-09-20T02:09:09.493Z,12.33
2022-09-20T02:10:19.906Z,12.46
2022-09-20T02:11:24.029Z,12.48
2022-09-20T02:12:33.698Z,12.46
2022-09-20T02:13:57.057Z,12.44
2022-09-20T02:15:20.827Z,12.50
2022-09-20T02:16:35.915Z,12.57
2022-09-20T02:17:50.292Z,12.58
2022-09-20T02:19:07.688Z,12.64
2022-09-20T02:20:17.239Z,12.67
2022-09-20T02:21:40.811Z,12.70
2022-09-20T02:22:53.865Z,12.65
2022-09-20T02:24:00.962Z,12.65
2022-09-20T02:25:12.007Z,12.63
2022-09-20T02:26:33.470Z,12.62
2022-09-20T02:27:39.838Z,12.58
2022-09-20T02:28:55.517Z,12.51
2022-09-20T02:30:01.852Z,12.53
2022-09-20T02:31:18.890Z,12.59
2022-09-20T02:32:25.876Z,12.67
2022-09-20T02:33:35.979Z,12.58
2022-09-20T02:34:43.133Z,12.55
2022-09-20T02:36:05.424Z,12.55
2022-09-20T02:37:10.515Z,12.53
2022-09-20T02:38:22.463Z,12.58
2022-09-20T02:39:40.081Z,12.52
2022-09-20T02:40:45.192Z,12.54
2022-09-20T02:42:05.475Z,12.58
2022-09-20T02:43:13.439Z,12.62
2022-09-20T02:44:21.874Z,12.59
2022-09-20T02:45:32.562Z,12.52
2022-09-20T02:46:41.679Z,12.54
2022-09-20T02:47:45.529Z,12.60
2022-09-20T02:49:08.492Z,12.63
2022-09-20T02:50:15.653Z,12.65
2022-09-20T02:51:22.082Z,12.56
2022-09-20T02:52:33.202Z,12.52
2022-09-20T02:53:37.451Z,12.41
2022-09-20T02:54:42.730Z,12.49
2022-09-20T02:55:58.154Z,12.54
2022-09-20T02:57:06.763Z,12.54
2022-09-20T02:58:24.056Z,12.54
2022-09-20T02:59:32.233Z,12.52
2022-09-20T03:00:54.259Z,12.47
2022-09-20T03:02:02.470Z,12.55
2022-09-20T03:03:25.792Z,12.41
2022-09-20T03:04:46.957Z,12.28
2022-09-20T03:06:06.558Z,12.18
2022-09-20T03:07:11.836Z,12.26
2022-09-20T03:08:16.072Z,12.37
2022-09-20T03:09:30.900Z,12.39
2022-09-20T03:10:54.424Z,12.39
2022-09-20T03:11:59.907Z,12.35
2022-09-20T03:13:09.354Z,12.37
2022-09-20T03:14:17.664Z,12.36
2022-09-20T03:15:22.840Z,12.33
2022-09-20T03:16:30.972Z,12.32
2022-09-20T03:17:51.588Z,12.36
2022-09-20T03:19:14.781Z,12.35
2022-09-20T03:20:28.573Z,12.39
2022-09-20T03:21:38.343Z,12.35
2022-09-20T03:22:58.321Z,12.36
2022-09-20T03:24:13.143Z,12.35
2022-09-20T03:25:34.399Z,12.39
2022-09-20T03:26:51.576Z,12.46
2022-09-20T03:28:13.371Z,12.39
2022-09-20T03:29:17.711Z,12.47
2022-09-20T03:30:24.758Z,12.54
2022-09-20T03:31:32.944Z,12.56
2022-09-20T03:32:41.074Z,12.55
2022-09-20T03:33:46.243Z,12.51
2022-09-20T03:34:51.633Z,12.51
2022-09-20T03:36:13.255Z,12.50
2022-09-20T03:37:17.447Z,12.53
2022-09-20T03:38:28.471Z,12.55
2022-09-20T03:39:50.985Z,12.54
2022-09-20T03:40:59.503Z,12.48
2022-09-20T03:42:04.470Z,12.49
2022-09-20T03:43:25.939Z,12.47
2022-09-20T03:44:32.864Z,12.54
2022-09-20T03:45:43.978Z,12.60
2022-09-20T03:46:48.861Z,12.64
2022-09-20T03:48:03.451Z,12.68
2022-09-20T03:49:25.867Z,12.63
2022-09-20T03:50:39.812Z,12.63
2022-09-20T03:51:47.075Z,12.64
2022-09-20T03:52:58.308Z,12.64
2022-09-20T03:54:03.919Z,12.66
2022-09-20T03:55:16.078Z,12.67
2022-09-20T03:56:33.694Z,12.64
2022-09-20T03:57:57.149Z,12.51
2022-09-20T03:59:07.746Z,12.57
2022-09-20T04:00:22.532Z,12.45
2022-09-20T04:01:34.477Z,12.49
2022-09-20T04:02:55.549Z,12.56
2022-09-20T04:04:16.508Z,12.64
2022-09-20T04:05:20.953Z,12.71
2022-09-20T04:06:26.329Z,12.77
2022-09-20T04:07:35.588Z,12.77
2022-09-20T04:08:41.184Z,12.81
2022-09-20T04:10:04.850Z,12.78
2022-09-20T04:12:43.410Z,12.81
2022-09-20T04:13:52.542Z,12.94
2022-09-20T04:15:00.404Z,12.88
2022-09-20T04:16:07.874Z,12.88
2022-09-20T04:17:31.677Z,12.93
2022-09-20T04:18:40.406Z,12.94
2022-09-20T04:19:52.578Z,13.00
2022-09-20T04:20:58.068Z,13.10
2022-09-20T04:22:05.019Z,13.30
2022-09-20T04:23:10.302Z,13.44
2022-09-20T04:24:30.934Z,13.49
2022-09-20T04:25:43.978Z,13.38
2022-09-20T04:26:48.076Z,13.29
2022-09-20T04:27:54.610Z,13.25
2022-09-20T04:29:10.335Z,13.30
2022-09-20T04:30:27.598Z,13.32
2022-09-20T04:31:32.847Z,13.36
2022-09-20T04:32:37.971Z,13.40
2022-09-20T04:33:43.146Z,13.37
2022-09-20T04:35:06.287Z,13.32
2022-09-20T04:36:29.952Z,13.36
2022-09-20T04:37:37.738Z,13.36
2022-09-20T04:38:41.567Z,13.44
2022-09-20T04:39:47.672Z,13.44
2022-09-20T04:41:10.604Z,13.50
2022-09-20T04:42:15.792Z,13.60
2022-09-20T04:43:38.101Z,13.64
2022-09-20T04:44:47.649Z,13.69
2022-09-20T04:45:54.774Z,13.69
2022-09-20T04:47:09.398Z,13.74
2022-09-20T04:48:30.229Z,13.70
2022-09-20T04:49:52.210Z,13.76
2022-09-20T04:50:59.706Z,13.78
2022-09-20T04:52:06.124Z,13.83
2022-09-20T04:53:20.200Z,13.86
2022-09-20T04:54:25.052Z,13.89
2022-09-20T04:55:47.778Z,13.80
2022-09-20T04:57:08.204Z,13.88
2022-09-20T04:58:20.993Z,13.77
2022-09-20T04:59:37.759Z,13.89
2022-09-20T05:00:49.324Z,14.01
2022-09-20T05:01:58.530Z,14.20
2022-09-20T05:03:06.672Z,14.31
2022-09-20T05:04:12.266Z,14.27
2022-09-20T05:05:21.811Z,14.29
2022-09-20T05:06:44.331Z,14.38
2022-09-20T05:07:57.561Z,14.32
2022-09-20T05:09:05.868Z,14.38
2022-09-20T05:10:17.304Z,14.53
2022-09-20T05:11:26.876Z,14.67
2022-09-20T05:12:38.770Z,14.75
2022-09-20T05:13:57.063Z,14.69
2022-09-20T05:15:14.356Z,14.76
2022-09-20T05:16:27.675Z,14.77
2022-09-20T05:17:38.705Z,14.79
2022-09-20T05:18:46.841Z,14.79
2022-09-20T05:19:54.393Z,14.83
2022-09-20T05:21:10.640Z,14.88
2022-09-20T05:22:18.836Z,14.86
2022-09-20T05:23:26.728Z,14.98
2022-09-20T05:24:40.061Z,15.16
2022-09-20T05:25:45.629Z,15.14
2022-09-20T05:27:03.055Z,15.06
2022-09-20T05:28:14.391Z,14.98
2022-09-20T05:29:18.960Z,15.00
2022-09-20T05:30:36.120Z,15.20
2022-09-20T05:31:49.058Z,15.13
2022-09-20T05:33:02.268Z,15.23
2022-09-20T05:34:11.695Z,15.21
2022-09-20T05:35:25.861Z,14.90
2022-09-20T05:36:34.607Z,14.77
2022-09-20T05:37:50.218Z,14.83
2022-09-20T05:39:09.150Z,14.65
2022-09-20T05:40:27.522Z,14.70
2022-09-20T05:41:32.486Z,14.62
2022-09-20T05:42:48.780Z,14.47
2022-09-20T05:43:56.415Z,14.57
2022-09-20T05:45:03.059Z,14.56
2022-09-20T05:46:20.490Z,14.50
2022-09-20T05:47:37.104Z,14.49
2022-09-20T05:48:55.212Z,14.54
2022-09-20T05:50:03.658Z,14.64
2022-09-20T05:51:08.150Z,14.80
2022-09-20T05:52:25.384Z,14.80
2022-09-20T05:53:46.970Z,14.76
2022-09-20T05:55:08.535Z,14.87
2022-09-20T05:56:26.881Z,14.89
2022-09-20T05:57:47.963Z,14.71
2022-09-20T05:58:56.232Z,14.82
2022-09-20T06:00:03.287Z,14.84
2022-09-20T06:01:23.840Z,15.04
2022-09-20T06:02:41.087Z,15.11
2022-09-20T06:03:52.339Z,15.29
2022-09-20T06:05:07.403Z,15.62
2022-09-20T06:06:15.334Z,15.55
2022-09-20T06:07:26.256Z,15.68
2022-09-20T06:08:47.111Z,15.93
2022-09-20T06:09:51.231Z,15.96
2022-09-20T06:11:06.949Z,16.26
2022-09-20T06:12:15.172Z,16.43
2022-09-20T06:13:36.331Z,16.54
2022-09-20T06:14:43.061Z,16.58
2022-09-20T06:15:52.008Z,16.53
2022-09-20T06:17:10.146Z,16.56
2022-09-20T06:18:24.713Z,16.57
2022-09-20T06:19:41.064Z,16.55
2022-09-20T06:21:02.733Z,16.34
2022-09-20T06:22:18.878Z,16.08
2022-09-20T06:23:23.787Z,15.82
2022-09-20T06:24:34.451Z,15.47
2022-09-20T06:25:43.710Z,15.46
2022-09-20T06:26:47.311Z,15.54
2022-09-20T06:28:00.016Z,15.52
2022-09-20T06:29:05.506Z,15.39
2022-09-20T06:30:11.931Z,15.27
2022-09-20T06:31:18.281Z,15.17
2022-09-20T06:32:21.699Z,14.95
2022-09-20T06:33:26.411Z,15.21
2022-09-20T06:34:29.924Z,15.18
2022-09-20T06:35:40.203Z,15.07
2022-09-20T06:37:10.332Z,15.03
2022-09-20T06:38:54.575Z,15.08
2022-09-20T06:40:21.983Z,15.07
2022-09-20T06:41:30.296Z,15.06
2022-09-20T06:42:34.556Z,15.08
2022-09-20T06:43:38.792Z,15.14
2022-09-20T06:44:42.820Z,15.17
2022-09-20T06:45:47.631Z,15.18
2022-09-20T06:46:51.827Z,15.28
2022-09-20T06:47:54.077Z,15.29
2022-09-20T06:48:59.098Z,15.43
2022-09-20T06:50:09.234Z,15.58
2022-09-20T06:51:12.775Z,15.61
2022-09-20T06:52:21.775Z,15.65
2022-09-20T06:53:28.417Z,15.77
2022-09-20T06:54:33.035Z,16.06
2022-09-20T06:55:39.534Z,16.12
2022-09-20T06:56:44.677Z,16.06
2022-09-20T06:57:48.601Z,15.96
2022-09-20T06:58:53.244Z,15.86
2022-09-20T06:59:57.526Z,15.79
2022-09-20T07:01:01.513Z,15.78
2022-09-20T07:02:09.046Z,15.82
2022-09-20T07:03:13.529Z,15.99
2022-09-20T07:04:16.942Z,16.07
2022-09-20T07:05:25.773Z,16.03
2022-09-20T07:06:29.622Z,16.09
2022-09-20T07:07:32.991Z,16.11
2022-09-20T07:08:36.846Z,16.01
2022-09-20T07:09:41.151Z,16.13
2022-09-20T07:10:44.969Z,16.19
2022-09-20T07:11:48.474Z,16.19
2022-09-20T07:12:51.979Z,16.15
2022-09-20T07:13:56.637Z,15.99
2022-09-20T07:14:59.213Z,15.85
2022-09-20T07:16:05.583Z,15.91
2022-09-20T07:17:12.204Z,15.87
2022-09-20T07:18:18.651Z,15.80
2022-09-20T07:19:23.496Z,15.85
2022-09-20T07:20:27.574Z,15.82
2022-09-20T07:21:30.975Z,15.72
2022-09-20T07:22:35.838Z,15.64
2022-09-20T07:23:39.249Z,15.52
2022-09-20T07:24:43.905Z,15.68
2022-09-20T07:25:48.075Z,15.68
2022-09-20T07:26:55.915Z,15.88
2022-09-20T07:28:00.370Z,15.96
2022-09-20T07:29:04.070Z,15.81
2022-09-20T07:30:07.799Z,15.68
2022-09-20T07:31:12.140Z,15.70
2022-09-20T07:32:16.270Z,15.75
2022-09-20T07:33:21.376Z,15.91
2022-09-20T07:34:24.942Z,15.89
2022-09-20T07:35:29.737Z,15.77
2022-09-20T07:36:33.320Z,15.87
2022-09-20T07:37:39.094Z,15.91
2022-09-20T07:38:46.033Z,15.90
2022-09-20T07:39:49.475Z,15.99
2022-09-20T07:41:01.257Z,16.18
2022-09-20T07:42:06.103Z,16.31
2022-09-20T07:43:11.274Z,16.34
2022-09-20T07:44:28.671Z,16.44
2022-09-20T07:45:33.639Z,16.36
2022-09-20T07:46:39.988Z,16.28
2022-09-20T07:47:46.871Z,16.32
2022-09-20T07:48:50.036Z,16.39
2022-09-20T07:49:57.043Z,16.49
2022-09-20T07:51:05.716Z,16.53
2022-09-20T07:52:08.125Z,16.41
2022-09-20T07:53:10.921Z,16.22
2022-09-20T07:54:14.300Z,16.08
2022-09-20T07:55:17.819Z,16.12
2022-09-20T07:56:20.475Z,16.21
2022-09-20T07:57:24.095Z,15.92
2022-09-20T07:58:27.590Z,15.90
2022-09-20T07:59:30.582Z,15.79
2022-09-20T08:00:33.867Z,15.88
2022-09-20T08:01:39.265Z,16.00
2022-09-20T08:02:42.631Z,15.95
2022-09-20T08:03:46.658Z,16.09
2022-09-20T08:04:51.240Z,16.15
2022-09-20T08:05:56.441Z,16.12
2022-09-20T08:07:01.377Z,16.04
2022-09-20T08:08:04.463Z,16.04
2022-09-20T08:09:11.326Z,16.11
2022-09-20T08:10:15.335Z,16.04
2022-09-20T08:11:20.355Z,16.15
2022-09-20T08:14:34.159Z,16.14
2022-09-20T08:15:37.676Z,16.26
2022-09-20T08:16:42.978Z,16.30
2022-09-20T08:17:47.598Z,16.25
2022-09-20T08:18:59.285Z,16.20
2022-09-20T08:20:03.114Z,15.92
2022-09-20T08:21:07.678Z,15.79
2022-09-20T08:22:14.069Z,15.46
2022-09-20T08:23:23.977Z,15.41
2022-09-20T08:24:27.018Z,15.49
2022-09-20T08:25:29.811Z,15.61
2022-09-20T08:26:35.182Z,15.57
2022-09-20T08:27:38.791Z,15.57
2022-09-20T08:28:42.650Z,15.62
2022-09-20T08:29:44.954Z,15.53
2022-09-20T08:30:51.943Z,15.60
2022-09-20T08:31:56.498Z,15.42
2022-09-20T08:33:03.313Z,15.52
2022-09-20T08:34:07.341Z,15.46
2022-09-20T08:35:11.878Z,15.60
2022-09-20T08:36:18.743Z,15.36
2022-09-20T08:37:21.407Z,15.55
2022-09-20T08:40:37.795Z,15.52
2022-09-20T08:42:02.366Z,15.35
2022-09-20T08:43:06.599Z,15.34
2022-09-20T08:44:20.838Z,15.31
2022-09-20T08:45:34.771Z,15.30
2022-09-20T08:46:35.869Z,15.43
2022-09-20T08:47:41.206Z,15.43
2022-09-20T08:48:48.783Z,15.56
2022-09-20T08:49:57.174Z,15.61
2022-09-20T08:51:05.669Z,15.54
2022-09-20T08:52:11.109Z,15.63
2022-09-20T08:53:21.174Z,15.53
2022-09-20T08:54:23.584Z,15.56
2022-09-20T08:55:37.156Z,15.34
2022-09-20T08:56:40.162Z,15.21
2022-09-20T08:57:45.158Z,15.02
2022-09-20T08:58:49.186Z,15.01
2022-09-20T08:59:52.428Z,15.16
2022-09-20T09:01:00.811Z,15.10
2022-09-20T09:02:04.324Z,15.17
2022-09-20T09:03:09.329Z,15.14
2022-09-20T09:04:17.154Z,15.25
2022-09-20T09:05:33.887Z,15.12
2022-09-20T09:06:40.326Z,14.98
2022-09-20T09:07:46.709Z,15.18
2022-09-20T09:08:52.092Z,15.18
2022-09-20T09:09:56.365Z,15.29
2022-09-20T09:11:07.073Z,15.33
2022-09-20T09:12:20.296Z,15.29
2022-09-20T09:13:29.430Z,15.37
2022-09-20T09:14:53.007Z,15.37
2022-09-20T09:15:58.813Z,15.45
2022-09-20T09:17:02.343Z,15.56
2022-09-20T09:18:08.093Z,15.38
2022-09-20T09:19:36.562Z,15.31
2022-09-20T09:20:37.902Z,15.28
2022-09-20T09:21:42.243Z,15.47
2022-09-20T09:22:47.720Z,15.60
2022-09-20T09:23:57.696Z,15.40
2022-09-20T09:25:19.171Z,15.45
2022-09-20T09:26:24.082Z,15.36
2022-09-20T09:27:26.925Z,15.58
2022-09-20T09:28:32.538Z,15.57
2022-09-20T09:29:37.277Z,15.39
2022-09-20T09:30:45.053Z,15.27
2022-09-20T09:31:52.613Z,15.28
2022-09-20T09:33:14.634Z,15.27
2022-09-20T09:34:22.944Z,15.29
2022-09-20T09:35:29.286Z,15.55
2022-09-20T09:36:33.441Z,15.55
2022-09-20T09:37:36.300Z,15.56
2022-09-20T09:38:44.206Z,15.49
2022-09-20T09:39:47.570Z,15.42
2022-09-20T09:40:54.728Z,15.33
2022-09-20T09:42:01.598Z,15.31
2022-09-20T09:43:05.291Z,15.14
2022-09-20T09:44:12.526Z,15.06
2022-09-20T09:45:17.839Z,15.10
2022-09-20T09:46:26.906Z,15.03
2022-09-20T09:47:30.167Z,15.18
2022-09-20T09:48:34.358Z,15.27
2022-09-20T09:49:37.812Z,15.35
2022-09-20T09:50:40.975Z,15.41
2022-09-20T09:52:04.579Z,15.37
2022-09-20T09:53:13.665Z,15.40
2022-09-20T09:54:21.330Z,15.28
2022-09-20T09:55:26.555Z,15.36
2022-09-20T09:56:34.563Z,15.24
2022-09-20T09:57:53.202Z,15.39
2022-09-20T09:59:13.417Z,15.45
2022-09-20T10:00:22.299Z,15.30
2022-09-20T10:01:32.566Z,15.31
2022-09-20T10:02:36.443Z,15.18
2022-09-20T10:03:41.016Z,15.12
2022-09-20T10:04:54.967Z,15.05
2022-09-20T10:06:04.572Z,14.91
2022-09-20T10:07:13.267Z,14.91
2022-09-20T10:08:21.577Z,15.03
2022-09-20T10:09:29.413Z,15.17
2022-09-20T10:10:36.838Z,15.14
2022-09-20T10:11:42.784Z,15.23
2022-09-20T10:12:47.806Z,15.35
2022-09-20T10:13:53.071Z,15.25
2022-09-20T10:14:57.437Z,15.39
2022-09-20T10:16:18.003Z,15.52
2022-09-20T10:17:26.058Z,15.37
2022-09-20T10:18:31.245Z,15.52
2022-09-20T10:19:47.170Z,15.47
2022-09-20T10:20:55.896Z,15.32
2022-09-20T10:22:04.007Z,15.26
2022-09-20T10:23:51.608Z,15.33
2022-09-20T10:24:28.597Z,15.34
2022-09-20T10:25:44.499Z,15.26
2022-09-20T10:26:51.857Z,15.08
2022-09-20T10:28:03.835Z,14.94
2022-09-20T10:29:09.202Z,14.80
2022-09-20T10:30:17.889Z,14.83
2022-09-20T10:31:38.582Z,14.77
2022-09-20T10:32:47.101Z,14.86
2022-09-20T10:33:54.781Z,14.89
2022-09-20T10:35:09.702Z,15.06
2022-09-20T10:36:29.043Z,15.13
2022-09-20T10:37:34.090Z,15.17
2022-09-20T10:38:42.442Z,15.03
2022-09-20T10:39:47.818Z,14.97
2022-09-20T10:41:22.335Z,14.92
2022-09-20T10:42:46.219Z,14.96
2022-09-20T10:44:09.035Z,14.91
2022-09-20T10:45:59.525Z,14.94
2022-09-20T10:46:52.693Z,14.85
2022-09-20T10:48:01.732Z,14.75
2022-09-20T10:49:07.842Z,14.86
2022-09-20T10:50:13.563Z,14.88
2022-09-20T10:51:20.316Z,14.82
2022-09-20T10:52:32.400Z,14.92
2022-09-20T10:53:50.152Z,14.93
2022-09-20T10:54:56.855Z,14.85
2022-09-20T10:56:02.227Z,15.09
2022-09-20T10:57:13.492Z,15.00
2022-09-20T10:58:19.470Z,15.09
2022-09-20T10:59:41.869Z,15.22
2022-09-20T11:00:53.062Z,15.27
2022-09-20T11:02:11.876Z,15.31
2022-09-20T11:03:22.721Z,15.44
2022-09-20T11:04:27.549Z,15.49
2022-09-20T11:05:36.482Z,15.60
2022-09-20T11:06:41.126Z,15.36
2022-09-20T11:07:53.947Z,15.32
2022-09-20T11:09:00.148Z,15.34
2022-09-20T11:10:09.931Z,15.49
2022-09-20T11:11:34.255Z,15.52
2022-09-20T11:12:46.802Z,15.34
2022-09-20T11:13:59.477Z,15.33
2022-09-20T11:15:06.037Z,15.20
2022-09-20T11:16:11.620Z,15.09
2022-09-20T11:17:27.571Z,15.17
2022-09-20T11:18:37.690Z,14.97
2022-09-20T11:20:04.856Z,14.86
2022-09-20T11:21:14.945Z,15.00
2022-09-20T11:22:19.957Z,14.88
2022-09-20T11:23:25.935Z,15.05
2022-09-20T11:24:34.244Z,15.09
2022-09-20T11:25:40.787Z,15.10
2022-09-20T11:26:49.078Z,15.08
2022-09-20T11:27:53.220Z,15.11
2022-09-20T11:28:58.180Z,15.14
2022-09-20T11:30:07.637Z,15.16
2022-09-20T11:31:13.543Z,15.19
2022-09-20T11:32:25.339Z,15.42
2022-09-20T11:33:42.382Z,15.57
2022-09-20T11:35:12.639Z,15.65
2022-09-20T11:36:20.738Z,15.53
2022-09-20T11:37:24.952Z,15.41
2022-09-20T11:38:33.428Z,15.41
2022-09-20T11:39:55.693Z,15.44
2022-09-20T11:41:03.574Z,15.46
2022-09-20T11:42:07.820Z,15.54
2022-09-20T11:43:13.518Z,15.64
2022-09-20T11:44:19.997Z,15.58
2022-09-20T11:45:27.699Z,15.65
2022-09-20T11:46:31.549Z,15.63
2022-09-20T11:47:54.409Z,15.75
2022-09-20T11:48:52.307Z,15.69
2022-09-20T11:50:17.259Z,15.78
2022-09-20T11:51:43.320Z,15.81
2022-09-20T11:52:48.614Z,15.90
2022-09-20T11:54:00.715Z,16.05
2022-09-20T11:55:17.652Z,16.10
2022-09-20T11:56:26.837Z,16.09
2022-09-20T11:57:30.523Z,16.21
2022-09-20T11:58:37.787Z,16.05
2022-09-20T11:59:42.755Z,16.03
2022-09-20T12:00:47.399Z,16.06
2022-09-20T12:01:52.579Z,16.19
2022-09-20T12:03:00.264Z,16.09
2022-09-20T12:04:31.688Z,16.06
2022-09-20T12:05:33.495Z,15.91
2022-09-20T12:06:39.192Z,15.89
2022-09-20T12:07:45.878Z,16.02
2022-09-20T12:08:55.112Z,16.04
2022-09-20T12:10:01.014Z,15.64
2022-09-20T12:11:06.062Z,15.61
2022-09-20T12:12:28.199Z,15.74
2022-09-20T12:13:35.201Z,15.77
2022-09-20T12:14:38.288Z,15.92
2022-09-20T12:15:44.615Z,15.75
2022-09-20T12:16:50.695Z,15.74
2022-09-20T12:17:56.335Z,15.61
2022-09-20T12:19:01.696Z,15.67
2022-09-20T12:20:06.159Z,15.62
2022-09-20T12:21:15.382Z,15.61
2022-09-20T12:22:16.416Z,15.60
2022-09-20T12:23:42.303Z,15.43
2022-09-20T12:24:45.800Z,15.36
2022-09-20T12:26:04.352Z,15.34
2022-09-20T12:27:27.812Z,15.48
2022-09-20T12:28:37.651Z,15.46
2022-09-20T12:29:48.591Z,15.65
2022-09-20T12:30:53.749Z,15.72
2022-09-20T12:32:05.577Z,15.82
2022-09-20T12:33:09.834Z,15.60
2022-09-20T12:34:16.403Z,15.56
2022-09-20T12:35:26.255Z,15.64
2022-09-20T12:36:32.994Z,15.79
2022-09-20T12:37:40.399Z,15.80
2022-09-20T12:38:47.052Z,15.87
2022-09-20T12:39:52.068Z,15.72
2022-09-20T12:41:14.895Z,15.74
2022-09-20T12:42:28.384Z,15.62
2022-09-20T12:43:32.663Z,15.52
2022-09-20T12:44:39.477Z,15.42
2022-09-20T12:45:43.665Z,15.30
2022-09-20T12:47:08.037Z,15.11
2022-09-20T12:48:14.637Z,15.28
2022-09-20T12:49:24.315Z,15.48
2022-09-20T12:50:46.774Z,15.28
2022-09-20T12:52:11.375Z,15.28
2022-09-20T12:53:15.706Z,15.47
2022-09-20T12:54:20.394Z,15.26
2022-09-20T12:55:43.086Z,15.44
2022-09-20T12:56:48.323Z,15.34
2022-09-20T12:57:57.238Z,15.40
2022-09-20T12:59:02.478Z,15.21
2022-09-20T13:00:08.619Z,15.24
2022-09-20T13:01:14.491Z,15.08
2022-09-20T13:02:36.070Z,14.92
2022-09-20T13:03:42.434Z,14.98
2022-09-20T13:04:50.711Z,15.07
2022-09-20T13:05:59.427Z,15.21
2022-09-20T13:07:23.866Z,15.28
2022-09-20T13:08:33.576Z,15.36
2022-09-20T13:09:37.321Z,15.27
2022-09-20T13:10:45.001Z,15.08
2022-09-20T13:11:51.602Z,15.07
2022-09-20T13:12:56.189Z,15.11
2022-09-20T13:14:07.486Z,15.23
2022-09-20T13:15:11.554Z,15.22
2022-09-20T13:16:25.848Z,15.14
2022-09-20T13:17:32.728Z,15.33
2022-09-20T13:18:36.891Z,15.21
2022-09-20T13:19:45.408Z,15.20
2022-09-20T13:20:48.287Z,15.18
2022-09-20T13:21:58.487Z,14.96
2022-09-20T13:23:05.604Z,15.08
2022-09-20T13:24:12.078Z,14.85
2022-09-20T13:25:19.881Z,14.97
2022-09-20T13:26:32.028Z,15.00
2022-09-20T13:27:42.751Z,15.13
2022-09-20T13:28:54.851Z,15.17
2022-09-20T13:30:18.058Z,14.83
2022-09-20T13:31:24.622Z,14.89
2022-09-20T13:32:29.177Z,15.06
2022-09-20T13:33:31.611Z,15.12
2022-09-20T13:34:36.671Z,15.08
2022-09-20T13:35:40.802Z,15.07
2022-09-20T13:36:44.099Z,14.83
2022-09-20T13:37:49.067Z,14.54
2022-09-20T13:38:54.527Z,14.39
2022-09-20T13:39:59.225Z,14.36
2022-09-20T13:41:03.770Z,14.50
2022-09-20T13:42:11.245Z,14.49
2022-09-20T13:43:34.269Z,14.46
2022-09-20T13:44:38.610Z,14.60
2022-09-20T13:45:43.756Z,14.51
2022-09-20T13:46:47.082Z,14.55
2022-09-20T13:47:52.259Z,14.48
2022-09-20T13:49:00.463Z,14.39
2022-09-20T13:50:04.609Z,14.32
2022-09-20T13:51:24.918Z,14.20
2022-09-20T13:52:28.743Z,14.13
2022-09-20T13:53:47.360Z,14.23
2022-09-20T13:54:37.322Z,14.25
2022-09-20T13:55:41.547Z,14.19
2022-09-20T13:56:45.785Z,14.24
2022-09-20T13:57:49.184Z,14.45
2022-09-20T13:58:52.929Z,14.46
2022-09-20T14:00:01.326Z,14.57
2022-09-20T14:01:10.099Z,14.35
2022-09-20T14:02:16.455Z,14.43
2022-09-20T14:03:21.857Z,14.36
2022-09-20T14:04:29.688Z,14.31
2022-09-20T14:05:34.084Z,14.32
2022-09-20T14:06:36.558Z,14.30
2022-09-20T14:07:39.531Z,14.38
2022-09-20T14:08:44.926Z,14.28
2022-09-20T14:09:49.431Z,14.26
2022-09-20T14:10:53.712Z,14.09
2022-09-20T14:11:58.355Z,14.07
2022-09-20T14:13:03.466Z,14.13
2022-09-20T14:14:11.737Z,14.17
2022-09-20T14:15:16.091Z,14.25
2022-09-20T14:16:21.041Z,14.15
2022-09-20T14:17:25.449Z,14.13
2022-09-20T14:18:28.377Z,14.12
2022-09-20T14:19:36.570Z,14.23
2022-09-20T14:20:42.259Z,14.23
2022-09-20T14:21:45.042Z,14.26
2022-09-20T14:22:49.594Z,14.18
2022-09-20T14:24:01.873Z,14.18
2022-09-20T14:25:07.371Z,14.15
2022-09-20T14:26:19.012Z,14.22
2022-09-20T14:27:22.110Z,14.36
2022-09-20T14:28:30.840Z,14.41
2022-09-20T14:29:38.556Z,14.40
2022-09-20T14:30:42.370Z,14.36
2022-09-20T14:31:47.815Z,14.30
2022-09-20T14:32:51.960Z,14.38
2022-09-20T14:33:58.039Z,14.41
2022-09-20T14:35:07.013Z,14.42
2022-09-20T14:36:17.062Z,14.48
2022-09-20T14:37:26.250Z,14.57
2022-09-20T14:38:29.632Z,14.53
2022-09-20T14:39:33.870Z,14.50
2022-09-20T14:40:47.609Z,14.38
2022-09-20T14:41:51.021Z,14.40
2022-09-20T14:44:20.519Z,14.42
2022-09-20T14:45:28.527Z,14.27
2022-09-20T14:46:36.678Z,14.31
2022-09-20T14:47:41.885Z,14.39
2022-09-20T14:48:46.309Z,14.35
2022-09-20T14:49:49.607Z,14.43
2022-09-20T14:51:12.739Z,14.48
2022-09-20T14:52:29.622Z,14.46
2022-09-20T14:53:33.545Z,14.48
2022-09-20T14:54:37.563Z,14.40
2022-09-20T14:55:41.900Z,14.34
2022-09-20T14:56:48.748Z,14.46
2022-09-20T14:57:57.791Z,14.45
2022-09-20T14:59:05.979Z,14.46